sensor_id;sensor_type;location;lat;lon;timestamp;temperature;humidity
58513;DHT22;44302;47.914;10.642;2022-09-27T06:01:08;8.40;99.90
58513;DHT22;44302;47.914;10.642;2022-09-27T06:03:35;8.50;99.90
58513;DHT22;44302;47.914;10.642;2022-09-27T06:06:02;8.50;99.90
58513;DHT22;44302;47.914;10.642;2022-09-27T06:08:32;8.50;99.90
58513;DHT22;44302;47.914;10.642;2022-09-27T06:11:05;8.60;99.90
58513;DHT22;44302;47.914;10.642;2022-09-27T06:13:32;8.70;99.90
58513;DHT22;44302;47.914;10.642;2022-09-27T06:16:06;8.70;99.90
58513;DHT22;44302;47.914;10.642;2022-09-27T06:18:33;8.70;99.90
58513;DHT22;44302;47.914;10.642;2022-09-27T06:45:49;8.60;99.90
58513;DHT22;44302;47.914;10.642;2022-09-27T06:48:15;8.70;99.90
58513;DHT22;44302;47.914;10.642;2022-09-27T06:50:43;8.70;99.90
58513;DHT22;44302;47.914;10.642;2022-09-27T06:53:10;8.70;99.90
58513;DHT22;44302;47.914;10.642;2022-09-27T06:55:37;8.80;99.90
58513;DHT22;44302;47.914;10.642;2022-09-27T06:58:03;8.90;99.90
58513;DHT22;44302;47.914;10.642;2022-09-27T07:00:51;8.90;99.90
58513;DHT22;44302;47.914;10.642;2022-09-27T07:03:19;9.10;99.90
58513;DHT22;44302;47.914;10.642;2022-09-27T07:05:59;9.10;99.90
58513;DHT22;44302;47.914;10.642;2022-09-27T07:08:27;9.10;99.90
58513;DHT22;44302;47.914;10.642;2022-09-27T07:11:01;9.10;99.90
58513;DHT22;44302;47.914;10.642;2022-09-27T07:13:28;9.00;99.90
58513;DHT22;44302;47.914;10.642;2022-09-27T07:44:33;8.80;99.90
58513;DHT22;44302;47.914;10.642;2022-09-27T07:46:59;8.70;99.90
58513;DHT22;44302;47.914;10.642;2022-09-27T08:11:18;8.90;99.90
58513;DHT22;44302;47.914;10.642;2022-09-27T08:29:23;8.60;99.90
58513;DHT22;44302;47.914;10.642;2022-09-27T08:31:52;8.60;99.90
58513;DHT22;44302;47.914;10.642;2022-09-27T08:34:19;8.70;99.90
58513;DHT22;44302;47.914;10.642;2022-09-27T08:36:45;8.80;99.90
58513;DHT22;44302;47.914;10.642;2022-09-27T08:39:10;9.00;99.90
58513;DHT22;44302;47.914;10.642;2022-09-27T08:42:01;9.30;99.90
58513;DHT22;44302;47.914;10.642;2022-09-27T08:45:00;9.60;99.90
58513;DHT22;44302;47.914;10.642;2022-09-27T08:47:58;10.30;99.90
58513;DHT22;44302;47.914;10.642;2022-09-27T08:50:31;11.90;99.90
58513;DHT22;44302;47.914;10.642;2022-09-27T08:55:39;12.20;99.90
58513;DHT22;44302;47.914;10.642;2022-09-27T09:00:54;11.50;99.90
58513;DHT22;44302;47.914;10.642;2022-09-27T09:03:24;10.50;99.90
58513;DHT22;44302;47.914;10.642;2022-09-27T09:06:06;10.50;99.90
58513;DHT22;44302;47.914;10.642;2022-09-27T09:11:20;9.90;99.90
58513;DHT22;44302;47.914;10.642;2022-09-27T09:28:01;9.00;99.90
58513;DHT22;44302;47.914;10.642;2022-09-27T09:30:53;8.80;99.90
58513;DHT22;44302;47.914;10.642;2022-09-27T09:39:10;8.00;99.90
58513;DHT22;44302;47.914;10.642;2022-09-27T09:44:44;7.40;99.90
58513;DHT22;44302;47.914;10.642;2022-09-27T09:47:39;7.40;99.90
58513;DHT22;44302;47.914;10.642;2022-09-27T09:50:27;7.30;99.90
58513;DHT22;44302;47.914;10.642;2022-09-27T09:53:59;7.30;99.90
58513;DHT22;44302;47.914;10.642;2022-09-27T09:56:39;7.30;99.90
58513;DHT22;44302;47.914;10.642;2022-09-27T09:59:28;7.30;99.90
58513;DHT22;44302;47.914;10.642;2022-09-27T10:02:11;7.30;99.90
58513;DHT22;44302;47.914;10.642;2022-09-27T10:04:38;7.40;99.90
58513;DHT22;44302;47.914;10.642;2022-09-27T10:07:04;7.60;99.90
58513;DHT22;44302;47.914;10.642;2022-09-27T10:09:30;7.80;99.90
58513;DHT22;44302;47.914;10.642;2022-09-27T10:11:58;8.50;99.90
58513;DHT22;44302;47.914;10.642;2022-09-27T10:14:25;10.30;99.90
58513;DHT22;44302;47.914;10.642;2022-09-27T10:16:58;10.70;99.90
58513;DHT22;44302;47.914;10.642;2022-09-27T10:19:29;10.70;99.90
58513;DHT22;44302;47.914;10.642;2022-09-27T10:22:01;10.50;99.90
58513;DHT22;44302;47.914;10.642;2022-09-27T10:24:27;10.20;99.90
58513;DHT22;44302;47.914;10.642;2022-09-27T10:26:58;10.20;99.90
58513;DHT22;44302;47.914;10.642;2022-09-27T10:29:33;9.80;99.90
58513;DHT22;44302;47.914;10.642;2022-09-27T10:32:01;9.80;99.90
58513;DHT22;44302;47.914;10.642;2022-09-27T10:34:37;10.50;99.90
58513;DHT22;44302;47.914;10.642;2022-09-27T10:37:04;11.00;99.90
58513;DHT22;44302;47.914;10.642;2022-09-27T10:39:31;11.20;99.90
58513;DHT22;44302;47.914;10.642;2022-09-27T10:41:57;11.10;99.90
58513;DHT22;44302;47.914;10.642;2022-09-27T10:44:28;11.30;99.90
58513;DHT22;44302;47.914;10.642;2022-09-27T10:47:38;11.10;99.90
58513;DHT22;44302;47.914;10.642;2022-09-27T10:49:48;10.90;99.90
58513;DHT22;44302;47.914;10.642;2022-09-27T10:52:19;10.40;99.90
58513;DHT22;44302;47.914;10.642;2022-09-27T10:54:58;9.90;99.90
58513;DHT22;44302;47.914;10.642;2022-09-27T10:57:27;9.80;99.90
58513;DHT22;44302;47.914;10.642;2022-09-27T11:00:21;9.70;99.90
58513;DHT22;44302;47.914;10.642;2022-09-27T11:02:53;10.40;99.90
58513;DHT22;44302;47.914;10.642;2022-09-27T11:07:56;12.70;99.90
58513;DHT22;44302;47.914;10.642;2022-09-27T11:10:24;12.90;99.90
58513;DHT22;44302;47.914;10.642;2022-09-27T11:15:50;11.60;99.90
58513;DHT22;44302;47.914;10.642;2022-09-27T11:34:40;13.90;99.90
58513;DHT22;44302;47.914;10.642;2022-09-27T11:37:42;13.90;99.90
58513;DHT22;44302;47.914;10.642;2022-09-27T12:02:36;11.80;99.90
58513;DHT22;44302;47.914;10.642;2022-09-27T12:08:45;11.30;99.90
58513;DHT22;44302;47.914;10.642;2022-09-27T12:11:36;11.10;99.90
58513;DHT22;44302;47.914;10.642;2022-09-27T12:16:57;10.80;99.90
58513;DHT22;44302;47.914;10.642;2022-09-27T12:19:29;10.60;99.90
58513;DHT22;44302;47.914;10.642;2022-09-27T12:21:58;10.50;99.90
58513;DHT22;44302;47.914;10.642;2022-09-27T12:24:26;10.40;99.90
58513;DHT22;44302;47.914;10.642;2022-09-27T12:26:55;10.40;99.90
58513;DHT22;44302;47.914;10.642;2022-09-27T12:29:33;10.40;99.90
58513;DHT22;44302;47.914;10.642;2022-09-27T12:32:23;10.60;99.90
58513;DHT22;44302;47.914;10.642;2022-09-27T12:37:42;12.20;99.90
58513;DHT22;44302;47.914;10.642;2022-09-27T12:40:30;12.50;99.90
58513;DHT22;44302;47.914;10.642;2022-09-27T12:43:21;13.20;99.90
58513;DHT22;44302;47.914;10.642;2022-09-27T12:51:34;12.90;99.90
58513;DHT22;44302;47.914;10.642;2022-09-27T13:00:22;10.40;99.90
58513;DHT22;44302;47.914;10.642;2022-09-27T13:09:34;9.50;99.90
58513;DHT22;44302;47.914;10.642;2022-09-27T13:11:47;9.10;99.90
58513;DHT22;44302;47.914;10.642;2022-09-27T13:14:24;9.00;99.90
58513;DHT22;44302;47.914;10.642;2022-09-27T13:16:51;9.00;99.90
58513;DHT22;44302;47.914;10.642;2022-09-27T13:19:42;8.90;99.90
58513;DHT22;44302;47.914;10.642;2022-09-27T13:24:52;9.00;99.90
58513;DHT22;44302;47.914;10.642;2022-09-27T13:29:48;9.60;99.90
58513;DHT22;44302;47.914;10.642;2022-09-27T13:32:23;9.90;99.90
58513;DHT22;44302;47.914;10.642;2022-09-27T13:34:55;10.80;99.90
58513;DHT22;44302;47.914;10.642;2022-09-27T13:40:19;13.40;99.90
58513;DHT22;44302;47.914;10.642;2022-09-27T13:42:53;13.80;99.90
58513;DHT22;44302;47.914;10.642;2022-09-27T13:45:30;14.60;99.90
58513;DHT22;44302;47.914;10.642;2022-09-27T13:48:00;15.30;99.90
58513;DHT22;44302;47.914;10.642;2022-09-27T13:50:27;14.60;99.90
58513;DHT22;44302;47.914;10.642;2022-09-27T13:53:05;14.10;99.90
58513;DHT22;44302;47.914;10.642;2022-09-27T13:55:48;13.50;99.90
58513;DHT22;44302;47.914;10.642;2022-09-27T14:01:25;11.90;99.90
58513;DHT22;44302;47.914;10.642;2022-09-27T14:03:55;11.30;99.90
58513;DHT22;44302;47.914;10.642;2022-09-27T14:06:30;10.80;99.90
58513;DHT22;44302;47.914;10.642;2022-09-27T14:09:13;10.40;99.90
58513;DHT22;44302;47.914;10.642;2022-09-27T14:11:43;10.20;99.90
58513;DHT22;44302;47.914;10.642;2022-09-27T14:14:19;10.20;99.90
58513;DHT22;44302;47.914;10.642;2022-09-27T14:16:46;10.20;99.90
58513;DHT22;44302;47.914;10.642;2022-09-27T14:19:22;10.10;99.90
58513;DHT22;44302;47.914;10.642;2022-09-27T14:21:50;10.00;99.90
58513;DHT22;44302;47.914;10.642;2022-09-27T14:24:20;10.10;99.90
58513;DHT22;44302;47.914;10.642;2022-09-27T14:26:46;10.10;99.90
58513;DHT22;44302;47.914;10.642;2022-09-27T14:29:21;10.10;99.90
58513;DHT22;44302;47.914;10.642;2022-09-27T14:32:01;10.30;99.90
58513;DHT22;44302;47.914;10.642;2022-09-27T14:34:27;10.50;99.90
58513;DHT22;44302;47.914;10.642;2022-09-27T14:36:53;10.50;99.90
58513;DHT22;44302;47.914;10.642;2022-09-27T14:39:38;10.50;99.90
58513;DHT22;44302;47.914;10.642;2022-09-27T14:42:20;10.10;99.90
58513;DHT22;44302;47.914;10.642;2022-09-27T14:44:47;10.10;99.90
58513;DHT22;44302;47.914;10.642;2022-09-27T14:47:24;10.00;99.90
58513;DHT22;44302;47.914;10.642;2022-09-27T14:49:52;10.20;99.90
58513;DHT22;44302;47.914;10.642;2022-09-27T14:52:27;10.40;99.90
58513;DHT22;44302;47.914;10.642;2022-09-27T14:55:04;10.60;99.90
58513;DHT22;44302;47.914;10.642;2022-09-27T14:57:31;10.60;99.90
58513;DHT22;44302;47.914;10.642;2022-09-27T15:00:14;10.30;99.90
58513;DHT22;44302;47.914;10.642;2022-09-27T15:02:41;10.20;99.90
58513;DHT22;44302;47.914;10.642;2022-09-27T15:05:19;10.00;99.90
58513;DHT22;44302;47.914;10.642;2022-09-27T15:07:47;9.70;99.90
58513;DHT22;44302;47.914;10.642;2022-09-27T15:10:18;9.70;99.90
58513;DHT22;44302;47.914;10.642;2022-09-27T15:12:47;9.60;99.90
58513;DHT22;44302;47.914;10.642;2022-09-27T15:15:15;9.50;99.90
58513;DHT22;44302;47.914;10.642;2022-09-27T15:17:44;9.50;99.90
58513;DHT22;44302;47.914;10.642;2022-09-27T15:20:28;9.40;99.90
58513;DHT22;44302;47.914;10.642;2022-09-27T15:22:58;9.40;99.90
58513;DHT22;44302;47.914;10.642;2022-09-27T15:30:38;9.50;99.90
58513;DHT22;44302;47.914;10.642;2022-09-27T15:33:18;9.50;99.90
58513;DHT22;44302;47.914;10.642;2022-09-27T15:35:51;9.60;99.90
58513;DHT22;44302;47.914;10.642;2022-09-27T15:43:22;9.50;99.90
58513;DHT22;44302;47.914;10.642;2022-09-27T15:45:53;9.60;99.90
58513;DHT22;44302;47.914;10.642;2022-09-27T15:48:19;9.50;99.90
58513;DHT22;44302;47.914;10.642;2022-09-27T15:50:46;9.40;99.90
58513;DHT22;44302;47.914;10.642;2022-09-27T15:55:58;9.30;99.90
58513;DHT22;44302;47.914;10.642;2022-09-27T15:58:24;9.20;99.90
58513;DHT22;44302;47.914;10.642;2022-09-27T16:00:55;9.20;99.90
58513;DHT22;44302;47.914;10.642;2022-09-27T16:03:22;9.00;99.90
58513;DHT22;44302;47.914;10.642;2022-09-27T16:05:48;9.00;99.90
58513;DHT22;44302;47.914;10.642;2022-09-27T16:08:14;9.00;99.90
58513;DHT22;44302;47.914;10.642;2022-09-27T16:10:44;9.00;99.90
58513;DHT22;44302;47.914;10.642;2022-09-27T16:13:11;8.90;99.90
58513;DHT22;44302;47.914;10.642;2022-09-27T16:15:36;8.80;99.90
58513;DHT22;44302;47.914;10.642;2022-09-27T16:18:02;8.70;99.90
58513;DHT22;44302;47.914;10.642;2022-09-27T16:20:28;8.50;99.90
58513;DHT22;44302;47.914;10.642;2022-09-27T16:22:56;8.50;99.90
58513;DHT22;44302;47.914;10.642;2022-09-27T16:25:22;8.30;99.90
58513;DHT22;44302;47.914;10.642;2022-09-27T16:27:49;8.30;99.90
58513;DHT22;44302;47.914;10.642;2022-09-27T16:30:16;8.20;99.90
58513;DHT22;44302;47.914;10.642;2022-09-27T16:32:43;8.20;99.90
58513;DHT22;44302;47.914;10.642;2022-09-27T16:35:10;8.30;99.90
58513;DHT22;44302;47.914;10.642;2022-09-27T16:37:36;8.20;99.90
58513;DHT22;44302;47.914;10.642;2022-09-27T16:40:03;8.20;99.90
58513;DHT22;44302;47.914;10.642;2022-09-27T16:42:29;8.10;99.90
58513;DHT22;44302;47.914;10.642;2022-09-27T16:44:55;8.10;99.90
58513;DHT22;44302;47.914;10.642;2022-09-27T16:47:21;8.10;99.90
58513;DHT22;44302;47.914;10.642;2022-09-27T16:49:47;8.00;99.90
58513;DHT22;44302;47.914;10.642;2022-09-27T16:52:31;8.10;99.90
58513;DHT22;44302;47.914;10.642;2022-09-27T16:54:57;8.10;99.90
58513;DHT22;44302;47.914;10.642;2022-09-27T16:57:24;8.00;99.90
58513;DHT22;44302;47.914;10.642;2022-09-27T16:59:51;8.00;99.90
58513;DHT22;44302;47.914;10.642;2022-09-27T17:02:16;7.90;99.90
58513;DHT22;44302;47.914;10.642;2022-09-27T17:04:42;7.90;99.90
58513;DHT22;44302;47.914;10.642;2022-09-27T17:07:08;7.90;99.90
58513;DHT22;44302;47.914;10.642;2022-09-27T17:09:33;7.90;99.90
58513;DHT22;44302;47.914;10.642;2022-09-27T17:11:59;7.90;99.90
58513;DHT22;44302;47.914;10.642;2022-09-27T17:14:25;7.90;99.90
58513;DHT22;44302;47.914;10.642;2022-09-27T17:16:51;7.90;99.90
58513;DHT22;44302;47.914;10.642;2022-09-27T17:19:17;7.90;99.90
58513;DHT22;44302;47.914;10.642;2022-09-27T17:21:44;7.90;99.90
58513;DHT22;44302;47.914;10.642;2022-09-27T17:24:10;7.80;99.90
58513;DHT22;44302;47.914;10.642;2022-09-27T17:26:36;7.80;99.90
58513;DHT22;44302;47.914;10.642;2022-09-27T17:29:02;7.70;99.90
58513;DHT22;44302;47.914;10.642;2022-09-27T17:31:29;7.70;99.90
58513;DHT22;44302;47.914;10.642;2022-09-27T17:34:02;7.70;99.90
58513;DHT22;44302;47.914;10.642;2022-09-27T17:36:29;7.70;99.90
58513;DHT22;44302;47.914;10.642;2022-09-27T17:38:59;7.70;99.90
58513;DHT22;44302;47.914;10.642;2022-09-27T17:41:26;7.70;99.90
58513;DHT22;44302;47.914;10.642;2022-09-27T17:43:57;7.60;99.90
58513;DHT22;44302;47.914;10.642;2022-09-27T17:46:28;7.60;99.90
58513;DHT22;44302;47.914;10.642;2022-09-27T17:48:55;7.60;99.90
58513;DHT22;44302;47.914;10.642;2022-09-27T17:51:41;7.60;99.90
58513;DHT22;44302;47.914;10.642;2022-09-27T17:54:08;7.60;99.90
58513;DHT22;44302;47.914;10.642;2022-09-27T17:56:38;7.60;99.90
58513;DHT22;44302;47.914;10.642;2022-09-27T17:59:06;7.60;99.90
58513;DHT22;44302;47.914;10.642;2022-09-27T18:01:32;7.70;99.90
58513;DHT22;44302;47.914;10.642;2022-09-27T18:03:59;7.60;99.90
58513;DHT22;44302;47.914;10.642;2022-09-27T18:06:26;7.70;99.90
58513;DHT22;44302;47.914;10.642;2022-09-27T18:08:53;7.70;99.90
58513;DHT22;44302;47.914;10.642;2022-09-27T18:11:22;7.70;99.90
58513;DHT22;44302;47.914;10.642;2022-09-27T18:13:57;7.60;99.90
58513;DHT22;44302;47.914;10.642;2022-09-27T18:16:26;7.60;99.90
58513;DHT22;44302;47.914;10.642;2022-09-27T18:18:56;7.60;99.90
58513;DHT22;44302;47.914;10.642;2022-09-27T18:21:22;7.50;99.90
58513;DHT22;44302;47.914;10.642;2022-09-27T18:23:50;7.50;99.90
58513;DHT22;44302;47.914;10.642;2022-09-27T18:26:17;7.40;99.90
58513;DHT22;44302;47.914;10.642;2022-09-27T18:28:43;7.40;99.90
58513;DHT22;44302;47.914;10.642;2022-09-27T18:31:11;7.40;99.90
58513;DHT22;44302;47.914;10.642;2022-09-27T18:33:38;7.40;99.90
58513;DHT22;44302;47.914;10.642;2022-09-27T18:36:24;7.40;99.90
58513;DHT22;44302;47.914;10.642;2022-09-27T18:41:20;7.30;99.90
58513;DHT22;44302;47.914;10.642;2022-09-27T18:43:46;7.30;99.90
58513;DHT22;44302;47.914;10.642;2022-09-27T18:46:15;7.40;99.90
58513;DHT22;44302;47.914;10.642;2022-09-27T18:48:41;7.40;99.90
58513;DHT22;44302;47.914;10.642;2022-09-27T18:51:08;7.50;99.90
58513;DHT22;44302;47.914;10.642;2022-09-27T18:53:35;7.40;99.90
58513;DHT22;44302;47.914;10.642;2022-09-27T18:56:09;7.50;99.90
58513;DHT22;44302;47.914;10.642;2022-09-27T18:58:37;7.50;99.90
58513;DHT22;44302;47.914;10.642;2022-09-27T19:01:05;7.50;99.90
58513;DHT22;44302;47.914;10.642;2022-09-27T19:03:31;7.50;99.90
58513;DHT22;44302;47.914;10.642;2022-09-27T19:05:59;7.50;99.90
58513;DHT22;44302;47.914;10.642;2022-09-27T19:08:26;7.60;99.90
58513;DHT22;44302;47.914;10.642;2022-09-27T19:10:52;7.60;99.90
58513;DHT22;44302;47.914;10.642;2022-09-27T19:13:17;7.70;99.90
58513;DHT22;44302;47.914;10.642;2022-09-27T19:15:56;7.70;99.90
58513;DHT22;44302;47.914;10.642;2022-09-27T19:18:23;7.70;99.90
58513;DHT22;44302;47.914;10.642;2022-09-27T19:20:49;7.70;99.90
58513;DHT22;44302;47.914;10.642;2022-09-27T19:23:15;7.70;99.90
58513;DHT22;44302;47.914;10.642;2022-09-27T19:25:41;7.80;99.90
58513;DHT22;44302;47.914;10.642;2022-09-27T19:30:33;7.70;99.90
58513;DHT22;44302;47.914;10.642;2022-09-27T19:32:58;7.70;99.90
58513;DHT22;44302;47.914;10.642;2022-09-27T19:35:24;7.70;99.90
58513;DHT22;44302;47.914;10.642;2022-09-27T19:37:50;7.70;99.90
58513;DHT22;44302;47.914;10.642;2022-09-27T19:40:16;7.70;99.90
58513;DHT22;44302;47.914;10.642;2022-09-27T19:42:41;7.70;99.90
58513;DHT22;44302;47.914;10.642;2022-09-27T19:45:08;7.70;99.90
58513;DHT22;44302;47.914;10.642;2022-09-27T19:47:34;7.70;99.90
58513;DHT22;44302;47.914;10.642;2022-09-27T19:49:59;7.70;99.90
58513;DHT22;44302;47.914;10.642;2022-09-27T19:52:25;7.70;99.90
58513;DHT22;44302;47.914;10.642;2022-09-27T19:57:17;7.70;99.90
58513;DHT22;44302;47.914;10.642;2022-09-27T19:59:43;7.70;99.90
58513;DHT22;44302;47.914;10.642;2022-09-27T20:02:09;7.60;99.90
58513;DHT22;44302;47.914;10.642;2022-09-27T20:04:35;7.60;99.90
58513;DHT22;44302;47.914;10.642;2022-09-27T20:07:01;7.60;99.90
58513;DHT22;44302;47.914;10.642;2022-09-27T20:09:26;7.60;99.90
58513;DHT22;44302;47.914;10.642;2022-09-27T20:11:52;7.60;99.90
58513;DHT22;44302;47.914;10.642;2022-09-27T20:14:18;7.60;99.90
58513;DHT22;44302;47.914;10.642;2022-09-27T20:16:43;7.70;99.90
58513;DHT22;44302;47.914;10.642;2022-09-27T20:19:09;7.70;99.90
58513;DHT22;44302;47.914;10.642;2022-09-27T20:21:35;7.60;99.90
58513;DHT22;44302;47.914;10.642;2022-09-27T20:24:02;7.70;99.90
58513;DHT22;44302;47.914;10.642;2022-09-27T20:26:30;7.70;99.90
58513;DHT22;44302;47.914;10.642;2022-09-27T20:28:57;7.70;99.90
58513;DHT22;44302;47.914;10.642;2022-09-27T20:31:25;7.70;99.90
58513;DHT22;44302;47.914;10.642;2022-09-27T20:33:51;7.70;99.90
58513;DHT22;44302;47.914;10.642;2022-09-27T20:36:30;7.70;99.90
58513;DHT22;44302;47.914;10.642;2022-09-27T20:38:58;7.80;99.90
58513;DHT22;44302;47.914;10.642;2022-09-27T20:41:28;7.70;99.90
58513;DHT22;44302;47.914;10.642;2022-09-27T20:43:56;7.80;99.90
58513;DHT22;44302;47.914;10.642;2022-09-27T20:46:23;7.80;99.90
58513;DHT22;44302;47.914;10.642;2022-09-27T20:48:51;7.80;99.90
58513;DHT22;44302;47.914;10.642;2022-09-27T20:51:18;7.80;99.90
58513;DHT22;44302;47.914;10.642;2022-09-27T20:56:38;7.80;99.90
58513;DHT22;44302;47.914;10.642;2022-09-27T20:59:16;7.90;99.90
58513;DHT22;44302;47.914;10.642;2022-09-27T21:01:43;7.80;99.90
58513;DHT22;44302;47.914;10.642;2022-09-27T21:04:10;7.80;99.90
58513;DHT22;44302;47.914;10.642;2022-09-27T21:06:37;7.90;99.90
58513;DHT22;44302;47.914;10.642;2022-09-27T21:09:04;7.90;99.90
58513;DHT22;44302;47.914;10.642;2022-09-27T21:11:30;7.90;99.90
58513;DHT22;44302;47.914;10.642;2022-09-27T21:13:56;7.90;99.90
58513;DHT22;44302;47.914;10.642;2022-09-27T21:16:24;7.90;99.90
58513;DHT22;44302;47.914;10.642;2022-09-27T21:18:51;7.90;99.90
58513;DHT22;44302;47.914;10.642;2022-09-27T21:21:17;7.90;99.90
